Aérodrome :
LOGIN :

S'inscrire | Disclaimer

   EN    FR    IT 

 










Légende :    VFR   VFR Marginal   IFR   IFR Intensif   IFR Très Intensif
Visi : 
Plafond : 
>= 8 km
>= 3000ft
5 à 8 km
1000 à 3000 ft
1500m à 5 km
500 à 1000 ft
800 à 1500m
200 à 500 ft
< 800m
< 200 ft
Symboles :   Orages  Brouillard  Fortes neiges  Fortes précipitations  Vent > 20 kt
SIGMETs :   Divers  Orages  Givrage  Turbulence  Onde Orograph.  Cendres Volcan.






- Altitude de l'aérodrome : 7 ft
- Code IATA : XHE


LFTH - Hyeres

DERNIER METAR :
  • 132030Z AUTO 02002KT CAVOK 24/21 Q1014 NOSIG

METARs EXPIRÉS :
  • 132000Z AUTO 00000KT CAVOK 25/20 Q1014 NOSIG
  • 131930Z AUTO 00000KT CAVOK 25/22 Q1014 NOSIG
  • 131900Z AUTO 24004KT CAVOK 26/22 Q1014 NOSIG
  • 131830Z AUTO 25003KT CAVOK 26/22 Q1013 NOSIG
  • 131800Z AUTO 20003KT CAVOK 26/22 Q1013 NOSIG

TAF TAF LFTH
Valide du 13 à 21h jusqu'au 14 à 21h UTC


132000Z 1321/1421 25005KT CAVOK
TEMPO 1411/1420 25018KT



MET'MAP, la Météo Aéronautique d'un coup d'oeil ! - Copyright ORBIFLY Décembre 2007 - Disclaimer

ORBIFLY MET'MAP TEAM :

Programmation & Développement : Alexandra Zaïnal
Sur une idée originale de : Baudouin d'Aumeries
Assistance à la programmation : Marc-Olivier Méhu
Soutien technique & logistique : Manuel Goepfert

Contact : metmap@orbifly.com




SOURCES & CREDITS :

   NOAA